Time;durP1;ratioP1;P1;durP2;ratioP2;P2;SDS_P1;SDS_P2;PMS_P1;PMS_P2;Temp;Humidity;BMP_temperature;BMP_pressure;BME280_temperature;BME280_humidity;BME280_pressure;Samples;Min_cycle;Max_cycle;Signal;HPM_P1;HPM_P2
2023/07/23 04:22:32;;;;;;;6.43;3.83;;;;;;;15.09;100.00;99902.91;5109872;27;20323;-66
2023/07/23 04:24:58;;;;;;;6.68;3.80;;;;;;;15.11;100.00;99903.50;5108691;28;20032;-66
2023/07/23 04:27:23;;;;;;;6.78;4.30;;;;;;;15.19;100.00;99903.25;5108411;28;20039;-66
2023/07/23 04:29:49;;;;;;;6.35;3.88;;;;;;;15.22;100.00;99902.84;5109331;28;20047;-66
2023/07/23 04:32:14;;;;;;;6.72;3.95;;;;;;;15.29;100.00;99905.53;5108520;28;20145;-66
2023/07/23 04:34:39;;;;;;;6.63;3.30;;;;;;;15.34;100.00;99908.41;5109632;28;20442;-67
2023/07/23 04:37:06;;;;;;;7.43;3.80;;;;;;;15.35;100.00;99910.88;5109555;28;20062;-66
2023/07/23 04:39:32;;;;;;;5.67;3.67;;;;;;;15.35;100.00;99913.53;5109374;28;20043;-65
2023/07/23 04:41:57;;;;;;;7.13;3.75;;;;;;;15.36;100.00;99909.81;5109499;28;20040;-66
2023/07/23 04:44:23;;;;;;;5.63;3.40;;;;;;;15.48;100.00;99916.16;5109508;28;20071;-66
2023/07/23 04:46:48;;;;;;;5.45;3.95;;;;;;;15.52;100.00;99916.59;5109353;28;20039;-66
2023/07/23 04:49:13;;;;;;;6.00;3.70;;;;;;;15.54;100.00;99914.50;5109126;28;20115;-67
2023/07/23 04:51:39;;;;;;;5.53;3.25;;;;;;;15.58;100.00;99920.25;5109386;28;20039;-66
2023/07/23 04:54:04;;;;;;;5.40;3.60;;;;;;;15.60;100.00;99919.03;5109362;28;20127;-65
2023/07/23 04:56:30;;;;;;;7.57;3.72;;;;;;;15.66;100.00;99918.19;5109160;28;20093;-66
2023/07/23 04:58:55;;;;;;;8.75;4.00;;;;;;;15.71;100.00;99904.97;5108864;28;20488;-66
2023/07/23 05:01:21;;;;;;;7.35;4.20;;;;;;;15.86;99.87;99914.59;5109098;28;20032;-65
2023/07/23 05:03:47;;;;;;;6.22;3.60;;;;;;;15.98;97.11;99916.38;5110059;28;20072;-66
2023/07/23 05:06:12;;;;;;;6.40;3.60;;;;;;;16.20;93.69;99913.31;5117115;28;20032;-66
2023/07/23 05:08:37;;;;;;;7.18;3.80;;;;;;;16.39;93.36;99906.97;5117367;28;20709;-66
2023/07/23 05:11:04;;;;;;;8.45;4.90;;;;;;;16.59;93.07;99917.56;5108881;28;20036;-65
2023/07/23 05:13:31;;;;;;;7.80;3.88;;;;;;;16.73;91.92;99920.97;5109251;28;20408;-67
2023/07/23 05:16:02;;;;;;;6.80;3.72;;;;;;;16.90;90.64;99919.38;5108811;28;20063;-66
2023/07/23 05:18:28;;;;;;;7.55;4.13;;;;;;;17.06;87.46;99918.78;5108588;28;20125;-67
2023/07/23 05:20:53;;;;;;;7.40;3.55;;;;;;;17.31;84.78;99924.09;5108659;28;20062;-66
2023/07/23 05:23:19;;;;;;;6.32;3.72;;;;;;;17.41;84.94;99926.28;5108768;28;20066;-66
2023/07/23 05:25:45;;;;;;;8.80;3.42;;;;;;;17.60;82.73;99916.28;5108637;28;20046;-67
2023/07/23 05:28:11;;;;;;;7.35;3.60;;;;;;;17.65;83.24;99919.13;5108727;28;20040;-67
2023/07/23 05:30:37;;;;;;;7.10;3.15;;;;;;;17.84;81.50;99920.75;5108323;28;20472;-66
2023/07/23 05:33:02;;;;;;;8.82;3.78;;;;;;;17.92;80.77;99926.88;5100088;28;20115;-59
2023/07/23 05:35:28;;;;;;;8.27;3.58;;;;;;;17.98;80.81;99917.88;5094942;28;20043;-61
2023/07/23 05:37:53;;;;;;;6.00;3.05;;;;;;;18.01;80.50;99920.94;5094966;28;20044;-59
2023/07/23 05:40:19;;;;;;;4.97;3.15;;;;;;;18.12;79.08;99914.75;5094439;28;20101;-60
2023/07/23 05:42:44;;;;;;;5.55;3.35;;;;;;;18.21;78.81;99915.25;5093586;28;20555;-59
2023/07/23 05:45:09;;;;;;;5.97;3.63;;;;;;;18.33;77.26;99917.97;5094672;28;20485;-61
2023/07/23 05:47:35;;;;;;;4.93;3.13;;;;;;;18.51;74.39;99923.25;5094457;28;20051;-59
2023/07/23 05:50:01;;;;;;;7.97;3.33;;;;;;;18.55;74.73;99918.22;5094215;28;20123;-60
2023/07/23 05:52:26;;;;;;;7.78;3.75;;;;;;;18.61;74.91;99915.41;5093163;28;20137;-59
2023/07/23 05:54:52;;;;;;;7.93;3.58;;;;;;;18.71;73.15;99904.06;5094636;28;20079;-59
2023/07/23 05:57:17;;;;;;;6.22;3.10;;;;;;;18.79;72.61;99906.44;5094532;28;20071;-59
2023/07/23 05:59:42;;;;;;;7.22;3.90;;;;;;;18.88;71.70;99915.81;5094064;28;20032;-61
2023/07/23 06:02:08;;;;;;;7.50;4.07;;;;;;;18.95;71.75;99916.50;5094391;28;20503;-60
2023/07/23 06:04:34;;;;;;;5.53;3.15;;;;;;;19.05;70.39;99921.31;5094425;28;20113;-61
2023/07/23 06:07:00;;;;;;;4.75;2.70;;;;;;;19.07;69.74;99921.88;5094305;28;20373;-62
2023/07/23 06:09:26;;;;;;;5.88;3.15;;;;;;;19.15;69.56;99921.53;5094109;28;20036;-59
2023/07/23 06:11:53;;;;;;;7.82;3.50;;;;;;;19.20;69.42;99916.22;5094071;28;20040;-61
2023/07/23 06:14:18;;;;;;;5.77;3.43;;;;;;;19.31;68.26;99916.47;5094226;28;20040;-59
2023/07/23 06:16:44;;;;;;;6.22;3.35;;;;;;;19.42;67.72;99919.09;5094076;28;20043;-61
2023/07/23 06:19:09;;;;;;;7.85;4.28;;;;;;;19.52;66.06;99918.50;5094228;28;20063;-58
2023/07/23 06:21:34;;;;;;;6.97;2.83;;;;;;;19.58;66.69;99920.28;5093927;28;20111;-59
2023/07/23 06:24:00;;;;;;;7.22;3.80;;;;;;;19.64;66.20;99916.63;5094085;28;20149;-61
2023/07/23 06:26:25;;;;;;;7.72;4.28;;;;;;;19.67;66.61;99913.44;5093933;28;20032;-59
2023/07/23 06:28:51;;;;;;;7.68;4.45;;;;;;;19.69;66.21;99922.13;5093592;28;20040;-55
2023/07/23 06:31:16;;;;;;;5.00;3.40;;;;;;;19.75;65.93;99925.72;5093808;28;20080;-60
2023/07/23 06:33:41;;;;;;;6.40;3.17;;;;;;;19.85;65.27;99922.41;5093800;28;20032;-60
2023/07/23 06:36:07;;;;;;;5.93;3.10;;;;;;;19.86;64.74;99915.94;5092455;28;20043;-59
2023/07/23 06:38:32;;;;;;;6.30;3.72;;;;;;;19.92;64.37;99913.09;5093485;28;20032;-59
2023/07/23 06:40:57;;;;;;;7.03;2.95;;;;;;;19.98;65.27;99914.00;5093660;28;20138;-60
2023/07/23 06:43:23;;;;;;;5.78;2.92;;;;;;;20.07;64.83;99917.94;5093074;28;20044;-59
2023/07/23 06:45:50;;;;;;;5.82;3.35;;;;;;;20.18;64.10;99908.16;5092771;28;20059;-60
2023/07/23 06:48:19;;;;;;;7.82;3.28;;;;;;;20.28;64.08;99911.03;5093277;28;20036;-62
2023/07/23 06:50:46;;;;;;;6.10;3.50;;;;;;;20.36;63.41;99907.91;5093408;28;20044;-60
2023/07/23 06:53:11;;;;;;;4.93;3.25;;;;;;;20.57;61.99;99917.19;5093395;28;20615;-60
2023/07/23 06:55:58;;;;;;;5.70;3.38;;;;;;;20.57;62.65;99914.50;5093323;28;20126;-61
2023/07/23 06:58:24;;;;;;;5.50;3.03;;;;;;;20.54;62.95;99907.72;5093007;28;20032;-60
2023/07/23 07:00:49;;;;;;;6.15;2.78;;;;;;;20.59;61.85;99913.16;5094386;28;20077;-60
2023/07/23 07:03:15;;;;;;;6.78;2.85;;;;;;;20.63;63.11;99905.41;5105914;28;20043;-60
2023/07/23 07:05:40;;;;;;;5.28;2.50;;;;;;;20.64;61.06;99907.03;5106647;28;20070;-59
2023/07/23 07:08:05;;;;;;;5.80;3.05;;;;;;;20.63;62.27;99908.09;5106571;27;20119;-61
2023/07/23 07:10:31;;;;;;;6.00;2.88;;;;;;;20.58;60.91;99902.59;5092584;28;20040;-58
2023/07/23 07:12:56;;;;;;;5.65;2.63;;;;;;;20.58;61.44;99903.41;5093067;28;20040;-60
2023/07/23 07:15:22;;;;;;;5.40;3.28;;;;;;;20.55;60.84;99901.22;5093485;28;20447;-60
2023/07/23 07:17:47;;;;;;;6.25;3.20;;;;;;;20.57;61.41;99900.97;5089597;28;20038;-59
2023/07/23 07:20:12;;;;;;;5.82;3.33;;;;;;;20.64;61.78;99906.22;5092023;28;20109;-60
2023/07/23 07:22:38;;;;;;;6.18;2.70;;;;;;;20.65;60.03;99892.44;5092850;28;20119;-60
2023/07/23 07:25:04;;;;;;;6.50;3.47;;;;;;;20.68;60.28;99901.97;5092899;28;20040;-59
2023/07/23 07:27:29;;;;;;;4.40;2.70;;;;;;;20.71;60.19;99901.44;5092679;28;20044;-60
2023/07/23 07:29:55;;;;;;;9.95;2.80;;;;;;;20.73;59.96;99900.13;5092475;28;20127;-60
2023/07/23 07:32:20;;;;;;;7.18;3.08;;;;;;;20.76;59.94;99896.13;5092867;28;20036;-60
2023/07/23 07:34:45;;;;;;;5.97;3.20;;;;;;;20.84;60.00;99903.81;5091438;28;20437;-60
2023/07/23 07:37:11;;;;;;;6.25;2.92;;;;;;;20.92;60.49;99906.06;5092511;28;20036;-60
2023/07/23 07:39:37;;;;;;;6.32;3.10;;;;;;;20.93;60.05;99904.19;5091681;28;20076;-60
2023/07/23 07:42:02;;;;;;;8.35;2.33;;;;;;;20.98;60.33;99906.97;5096325;28;20039;-61
2023/07/23 07:44:28;;;;;;;4.40;2.50;;;;;;;20.97;61.37;99906.16;5092264;28;20122;-58
2023/07/23 07:46:54;;;;;;;5.20;3.05;;;;;;;21.02;61.47;99898.09;5091790;28;20401;-57
2023/07/23 07:49:19;;;;;;;6.03;3.15;;;;;;;21.05;60.83;99897.59;5081837;28;20069;-59
2023/07/23 07:51:47;;;;;;;3.75;2.40;;;;;;;21.09;60.67;99898.75;5080001;28;20029;-59
2023/07/23 07:54:13;;;;;;;4.80;2.90;;;;;;;21.18;59.75;99904.53;5080956;28;20035;-60
2023/07/23 07:56:39;;;;;;;5.85;2.47;;;;;;;21.22;59.97;99907.56;5081476;28;20055;-61
2023/07/23 07:59:05;;;;;;;3.97;2.33;;;;;;;21.24;59.99;99898.13;5078384;28;20024;-54
2023/07/23 08:01:31;;;;;;;3.78;2.25;;;;;;;21.28;60.94;99904.72;5092355;28;20484;-52
2023/07/23 08:03:57;;;;;;;5.97;2.97;;;;;;;21.37;58.50;99895.06;5092152;28;20055;-59
2023/07/23 08:06:24;;;;;;;6.57;3.25;;;;;;;21.53;58.39;99896.06;5092555;28;20512;-55
2023/07/23 08:08:51;;;;;;;5.75;2.33;;;;;;;21.67;56.42;99899.22;5091958;28;20039;-56
2023/07/23 08:11:17;;;;;;;3.92;2.40;;;;;;;21.75;56.07;99895.22;5092252;28;20105;-58
2023/07/23 08:13:43;;;;;;;4.85;2.25;;;;;;;21.81;56.17;99889.59;5091975;28;20497;-62
2023/07/23 08:16:12;;;;;;;4.63;2.10;;;;;;;21.93;56.17;99895.69;5092251;28;20086;-61
2023/07/23 08:18:38;;;;;;;3.88;1.95;;;;;;;22.03;54.24;99883.28;5091902;28;20081;-62
2023/07/23 08:21:04;;;;;;;4.25;2.33;;;;;;;22.11;54.67;99886.41;5092036;28;20572;-63
2023/07/23 08:23:30;;;;;;;4.28;2.75;;;;;;;22.26;53.96;99885.69;5092086;28;20409;-61
2023/07/23 08:25:58;;;;;;;3.38;2.33;;;;;;;22.34;53.21;99876.25;5091854;28;20036;-61
2023/07/23 08:28:28;;;;;;;4.38;2.50;;;;;;;22.46;53.52;99882.34;5091751;28;20089;-62
2023/07/23 08:30:57;;;;;;;3.20;2.13;;;;;;;22.66;52.39;99885.19;5091796;28;20044;-61
2023/07/23 08:33:27;;;;;;;11.38;2.67;;;;;;;22.68;51.28;99863.19;5092097;28;20024;-61
2023/07/23 08:35:53;;;;;;;4.45;2.10;;;;;;;22.90;51.57;99873.97;5091677;28;20385;-62
2023/07/23 08:38:18;;;;;;;4.30;2.30;;;;;;;23.02;51.31;99880.84;5090753;28;20039;-60
2023/07/23 08:40:45;;;;;;;3.33;2.03;;;;;;;23.01;50.95;99875.63;5091722;28;20039;-60
2023/07/23 08:43:38;;;;;;;4.25;2.38;;;;;;;23.10;51.49;99874.06;5091938;28;20047;-61
2023/07/23 08:46:21;;;;;;;6.53;2.42;;;;;;;23.15;51.77;99876.81;5091678;28;20036;-60
2023/07/23 08:48:56;;;;;;;4.88;2.60;;;;;;;23.14;51.41;99875.16;5091217;28;20043;-63
2023/07/23 08:51:26;;;;;;;5.05;2.20;;;;;;;23.29;51.63;99877.97;5091757;28;20101;-61
2023/07/23 08:53:53;;;;;;;4.32;2.05;;;;;;;23.41;51.58;99872.31;5091779;28;20032;-61
2023/07/23 08:56:18;;;;;;;3.53;2.05;;;;;;;23.51;50.37;99866.88;5091659;28;20043;-62
2023/07/23 08:58:45;;;;;;;3.33;2.05;;;;;;;23.65;49.36;99869.94;5091427;28;20036;-62
2023/07/23 09:01:15;;;;;;;5.33;2.30;;;;;;;23.77;49.86;99864.25;5091842;28;20068;-62
2023/07/23 09:03:40;;;;;;;4.63;2.20;;;;;;;23.78;48.76;99858.53;5092047;28;20443;-62
2023/07/23 09:06:06;;;;;;;6.40;2.00;;;;;;;23.94;49.44;99862.13;5090308;28;20032;-61
2023/07/23 09:08:33;;;;;;;3.58;2.03;;;;;;;24.11;50.35;99850.94;5093833;28;20066;-62
2023/07/23 09:10:58;;;;;;;;;;;;;;;24.32;48.88;99857.19;5095725;28;20481;-62
2023/07/23 09:13:35;;;;;;;3.55;1.98;;;;;;;24.44;47.61;99854.22;5094154;28;19916;-62
2023/07/23 09:16:01;;;;;;;6.60;2.17;;;;;;;24.51;47.17;99862.94;5095230;28;20051;-62
2023/07/23 09:18:27;;;;;;;4.97;1.58;;;;;;;24.54;47.89;99874.09;5095219;28;20773;-63
2023/07/23 09:20:53;;;;;;;3.67;1.70;;;;;;;24.50;47.42;99875.72;5095024;28;20131;-62
2023/07/23 09:23:18;;;;;;;3.45;1.48;;;;;;;24.60;48.46;99869.47;5095314;28;20036;-62
2023/07/23 09:25:44;;;;;;;3.78;1.90;;;;;;;24.69;46.53;99850.66;5095102;28;20047;-60
2023/07/23 09:28:22;;;;;;;2.95;1.80;;;;;;;24.67;46.22;99866.47;5095125;28;20405;-62
2023/07/23 09:30:48;;;;;;;3.20;1.77;;;;;;;24.55;45.60;99864.84;5095001;28;20055;-62
2023/07/23 09:33:13;;;;;;;3.17;1.77;;;;;;;24.53;47.25;99861.59;5095073;28;20480;-61
2023/07/23 09:35:39;;;;;;;6.47;1.60;;;;;;;24.54;46.30;99852.31;5094889;28;20059;-60
2023/07/23 09:38:05;;;;;;;2.88;1.90;;;;;;;24.46;45.97;99858.34;5095012;28;20546;-60
2023/07/23 09:40:38;;;;;;;2.97;2.00;;;;;;;24.59;46.31;99846.88;5094502;28;20032;-61
2023/07/23 09:43:04;;;;;;;5.30;1.90;;;;;;;24.68;47.33;99844.41;5094852;28;20040;-61
2023/07/23 09:45:39;;;;;;;4.38;1.88;;;;;;;24.80;46.94;99857.72;5094641;28;20070;-60
2023/07/23 09:48:07;;;;;;;3.30;2.00;;;;;;;24.87;46.40;99847.34;5094889;28;20588;-62
2023/07/23 09:50:32;;;;;;;4.93;2.05;;;;;;;25.10;46.82;99863.13;5094332;28;20405;-62
2023/07/23 09:52:58;;;;;;;2.72;1.70;;;;;;;25.23;45.97;99844.50;5094497;28;20028;-61
2023/07/23 09:55:23;;;;;;;4.72;2.50;;;;;;;25.24;46.44;99840.72;5094461;28;20036;-62
2023/07/23 09:57:50;;;;;;;4.03;1.98;;;;;;;25.33;44.86;99860.81;5094595;28;20027;-61
2023/07/23 10:00:16;;;;;;;4.45;2.50;;;;;;;25.69;46.73;99845.06;5094345;28;20093;-62
2023/07/23 10:02:43;;;;;;;7.05;2.88;;;;;;;26.25;45.45;99848.22;5094533;28;20404;-62
2023/07/23 10:05:15;;;;;;;4.32;2.03;;;;;;;26.73;43.63;99850.25;5094298;28;20028;-61
2023/07/23 10:07:41;;;;;;;3.63;2.33;;;;;;;26.87;41.69;99834.00;5088012;28;20500;-66
2023/07/23 10:10:07;;;;;;;5.07;2.20;;;;;;;27.26;42.20;99842.81;5073868;28;20032;-61
2023/07/23 10:12:32;;;;;;;4.15;2.22;;;;;;;27.22;41.27;99849.97;5073856;28;20029;-64
2023/07/23 10:14:58;;;;;;;5.25;2.22;;;;;;;27.48;41.71;99838.69;5074013;28;20394;-60
2023/07/23 10:17:24;;;;;;;4.20;2.53;;;;;;;27.57;41.23;99831.44;5073820;28;20187;-62
2023/07/23 10:19:53;;;;;;;8.32;2.42;;;;;;;27.67;41.20;99825.03;5073545;28;20037;-62
2023/07/23 10:22:21;;;;;;;3.65;2.30;;;;;;;27.31;41.05;99828.25;5073648;28;20040;-63
2023/07/23 10:24:51;;;;;;;5.07;2.45;;;;;;;27.78;41.77;99824.63;5073762;28;20036;-62
2023/07/23 10:27:18;;;;;;;3.88;2.65;;;;;;;28.01;41.45;99827.53;5082362;28;20040;-62
2023/07/23 10:30:16;;;;;;;3.10;2.33;;;;;;;28.41;40.82;99825.22;5093681;28;20066;-61
2023/07/23 10:32:41;;;;;;;3.92;2.30;;;;;;;28.74;40.40;99825.97;5093714;28;20032;-63
2023/07/23 10:35:07;;;;;;;4.78;2.67;;;;;;;28.89;38.28;99829.25;5094048;28;20081;-63
2023/07/23 10:37:32;;;;;;;3.65;2.53;;;;;;;28.87;38.18;99842.41;5093756;28;20036;-63
2023/07/23 10:39:59;;;;;;;3.28;2.53;;;;;;;28.85;37.88;99833.69;5093492;28;20039;-62
2023/07/23 10:42:40;;;;;;;3.88;2.40;;;;;;;28.73;37.97;99818.88;5093748;28;20135;-62
2023/07/23 10:45:21;;;;;;;4.45;2.15;;;;;;;28.30;38.71;99817.19;5093657;28;20490;-63
2023/07/23 10:47:53;;;;;;;3.83;2.53;;;;;;;28.16;40.23;99813.56;5093696;28;20028;-61
2023/07/23 10:50:20;;;;;;;5.68;2.25;;;;;;;28.03;40.03;99819.81;5093292;28;20165;-62
2023/07/23 10:52:49;;;;;;;4.90;2.60;;;;;;;27.75;39.78;99816.19;5093539;28;20039;-62
2023/07/23 10:55:47;;;;;;;3.35;2.33;;;;;;;27.66;40.38;99813.28;5093355;28;20032;-62
2023/07/23 10:58:19;;;;;;;3.88;2.58;;;;;;;27.90;39.88;99804.97;5093300;28;20062;-63
2023/07/23 11:00:47;;;;;;;3.33;2.22;;;;;;;27.91;40.28;99803.06;5093507;28;20027;-63
2023/07/23 11:03:16;;;;;;;4.82;2.53;;;;;;;27.81;40.07;99810.31;5093348;28;20034;-62
2023/07/23 11:05:42;;;;;;;6.80;2.58;;;;;;;27.68;40.27;99802.88;5093079;28;20043;-63
2023/07/23 11:08:11;;;;;;;2.72;2.03;;;;;;;27.63;40.73;99802.09;5092052;28;20055;-62
2023/07/23 11:11:05;;;;;;;4.45;2.40;;;;;;;27.75;39.94;99805.22;5092857;28;20036;-62
2023/07/23 11:13:33;;;;;;;3.70;2.42;;;;;;;27.81;39.49;99804.84;5093008;28;20508;-63
2023/07/23 11:15:59;;;;;;;3.85;2.55;;;;;;;27.91;39.93;99797.56;5092924;28;20043;-61
2023/07/23 11:18:25;;;;;;;3.80;2.30;;;;;;;27.99;39.91;99792.25;5092841;28;20036;-62
2023/07/23 11:20:53;;;;;;;4.55;2.38;;;;;;;28.16;40.92;99788.94;5092805;28;20189;-63
2023/07/23 11:23:20;;;;;;;5.70;2.53;;;;;;;28.65;40.54;99790.25;5091473;28;20044;-63
2023/07/23 11:25:49;;;;;;;;;;;;;;;29.06;38.25;99781.22;5091896;28;20073;-63
2023/07/23 11:28:19;;;;;;;3.83;2.40;;;;;;;29.39;37.72;99782.66;5092620;28;19944;-64
2023/07/23 11:30:48;;;;;;;3.53;1.95;;;;;;;29.90;36.63;99792.47;5092145;28;20497;-63
2023/07/23 11:33:13;;;;;;;2.92;2.15;;;;;;;29.90;36.29;99773.25;5092730;28;20170;-63
2023/07/23 11:35:39;;;;;;;5.22;2.25;;;;;;;30.11;36.94;99762.59;5092624;28;20040;-63
2023/07/23 11:38:05;;;;;;;4.22;2.33;;;;;;;30.49;36.73;99784.09;5092514;28;20415;-63
2023/07/23 11:40:30;;;;;;;3.28;2.10;;;;;;;30.40;35.64;99759.34;5092341;28;20031;-62
2023/07/23 11:43:02;;;;;;;4.38;2.17;;;;;;;30.52;36.69;99758.75;5091258;28;20036;-64
2023/07/23 11:45:28;;;;;;;3.67;2.35;;;;;;;30.55;34.83;99777.34;5092553;28;20124;-64
2023/07/23 11:47:54;;;;;;;5.13;2.45;;;;;;;30.70;33.61;99767.88;5092187;28;20070;-63
2023/07/23 11:50:21;;;;;;;4.77;2.03;;;;;;;30.47;34.47;99765.19;5092212;28;20035;-64
2023/07/23 11:52:47;;;;;;;5.30;2.28;;;;;;;30.21;34.16;99756.03;5092517;28;20088;-63
2023/07/23 11:55:25;;;;;;;3.13;2.30;;;;;;;30.48;33.43;99760.50;5092322;28;20042;-64
2023/07/23 11:57:54;;;;;;;4.18;2.38;;;;;;;30.46;32.54;99757.28;5092352;28;20526;-65
2023/07/23 12:00:27;;;;;;;3.90;2.25;;;;;;;30.45;33.31;99766.63;5092121;28;20032;-63
2023/07/23 12:02:53;;;;;;;4.40;2.40;;;;;;;30.75;33.22;99751.25;5092323;28;20035;-64
2023/07/23 12:05:19;;;;;;;2.83;2.00;;;;;;;31.11;31.33;99731.75;5092257;28;20040;-64
2023/07/23 12:07:45;;;;;;;3.70;2.25;;;;;;;31.57;31.74;99752.34;5092388;28;20047;-63
2023/07/23 12:10:15;;;;;;;3.43;2.10;;;;;;;31.67;30.50;99740.16;5091947;28;20121;-63
2023/07/23 12:12:44;;;;;;;3.60;1.80;;;;;;;31.81;30.94;99749.09;5092149;28;20040;-63
2023/07/23 12:15:13;;;;;;;4.35;2.40;;;;;;;31.42;30.84;99753.63;5092078;28;20032;-63
2023/07/23 12:17:39;;;;;;;2.50;1.90;;;;;;;31.20;31.50;99740.00;5092094;28;20051;-63
2023/07/23 12:20:05;;;;;;;3.33;1.90;;;;;;;31.46;31.81;99732.59;5091649;28;20032;-63
2023/07/23 12:22:30;;;;;;;3.15;1.85;;;;;;;31.39;31.22;99737.78;5092205;28;20539;-62
2023/07/23 12:24:56;;;;;;;3.42;2.20;;;;;;;31.11;31.53;99731.75;5092012;28;20032;-62
2023/07/23 12:27:21;;;;;;;3.38;2.15;;;;;;;30.97;32.80;99729.16;5091932;28;20122;-63
2023/07/23 12:29:48;;;;;;;3.28;1.95;;;;;;;30.82;33.82;99715.84;5091646;28;20067;-63
2023/07/23 12:32:19;;;;;;;;;;;;;;;30.68;33.68;99717.94;5088971;28;20040;-63
2023/07/23 12:34:48;;;;;;;3.67;2.25;;;;;;;30.11;34.50;99729.63;5077899;28;19921;-62
2023/07/23 12:37:16;;;;;;;3.65;2.53;;;;;;;29.69;35.08;99731.78;5076309;28;20032;-63
2023/07/23 12:39:43;;;;;;;4.40;2.20;;;;;;;29.42;35.05;99721.72;5080367;28;20039;-63
2023/07/23 12:42:09;;;;;;;;;;;;;;;29.62;35.54;99725.13;5082582;28;20031;-66
2023/07/23 12:44:34;;;;;;;2.50;2.00;;;;;;;29.91;35.33;99710.94;5095764;28;19915;-62
2023/07/23 12:47:00;;;;;;;3.33;2.33;;;;;;;30.61;34.03;99720.31;5095984;28;20366;-63
2023/07/23 12:49:25;;;;;;;3.53;1.92;;;;;;;30.68;33.55;99717.94;5095481;28;20036;-63
2023/07/23 12:51:51;;;;;;;3.25;2.25;;;;;;;30.36;32.79;99719.09;5095826;28;20077;-63
2023/07/23 12:54:16;;;;;;;3.58;2.28;;;;;;;30.45;32.63;99708.91;5095994;28;20078;-63
2023/07/23 12:56:42;;;;;;;3.65;2.15;;;;;;;30.38;32.47;99722.31;5096767;28;20120;-64
2023/07/23 12:59:07;;;;;;;3.20;2.10;;;;;;;30.73;33.03;99720.53;5096029;28;20040;-65
2023/07/23 13:01:33;;;;;;;4.53;2.25;;;;;;;30.45;32.89;99704.25;5095933;28;20032;-65
2023/07/23 13:03:58;;;;;;;3.85;2.72;;;;;;;30.35;33.19;99704.53;5095618;28;20040;-65
2023/07/23 13:06:23;;;;;;;3.78;2.83;;;;;;;29.76;33.28;99712.13;5095590;28;20048;-64
2023/07/23 13:08:49;;;;;;;2.88;2.20;;;;;;;29.95;33.56;99710.00;5095219;28;20040;-64
2023/07/23 13:11:14;;;;;;;2.45;1.60;;;;;;;30.67;33.07;99703.38;5095606;28;20047;-63
2023/07/23 13:13:40;;;;;;;3.72;2.25;;;;;;;31.04;31.32;99715.72;5095421;28;20036;-63
2023/07/23 13:16:06;;;;;;;4.18;2.45;;;;;;;30.97;31.86;99714.56;5095316;28;20150;-64
2023/07/23 13:18:31;;;;;;;3.00;2.10;;;;;;;31.01;31.33;99704.56;5094856;28;20028;-63
2023/07/23 13:20:57;;;;;;;4.68;1.83;;;;;;;30.82;30.75;99717.78;5086887;28;20032;-64
2023/07/23 13:23:22;;;;;;;3.10;2.05;;;;;;;30.62;31.34;99708.97;5075016;28;20063;-63
2023/07/23 13:25:50;;;;;;;2.47;1.83;;;;;;;30.71;31.64;99714.53;5090402;28;20058;-63
2023/07/23 13:28:15;;;;;;;3.10;1.90;;;;;;;30.80;32.29;99710.69;5074699;28;20520;-64
2023/07/23 13:30:41;;;;;;;4.95;2.30;;;;;;;30.99;31.75;99718.63;5074564;28;20056;-63
2023/07/23 13:33:06;;;;;;;4.25;1.75;;;;;;;30.81;30.58;99719.72;5080087;28;20047;-64
2023/07/23 13:35:32;;;;;;;2.72;1.70;;;;;;;30.38;30.99;99731.34;5093902;28;20237;-64
2023/07/23 13:37:57;;;;;;;2.72;1.75;;;;;;;30.09;31.27;99725.56;5094852;28;20077;-64
2023/07/23 13:40:23;;;;;;;4.43;2.28;;;;;;;29.92;32.27;99707.06;5094493;28;20127;-64
2023/07/23 13:42:48;;;;;;;3.20;2.15;;;;;;;29.92;32.29;99707.84;5094538;28;20040;-64
2023/07/23 13:45:14;;;;;;;4.85;2.20;;;;;;;29.95;33.21;99710.00;5092795;28;20047;-64
2023/07/23 13:47:40;;;;;;;3.28;2.38;;;;;;;30.06;33.16;99712.44;5093861;28;20096;-64
2023/07/23 13:50:05;;;;;;;5.85;2.70;;;;;;;29.87;33.29;99724.47;5093977;28;20036;-64
2023/07/23 13:52:31;;;;;;;3.25;2.10;;;;;;;29.49;32.62;99715.00;5092550;28;20700;-64
2023/07/23 13:54:56;;;;;;;4.38;2.10;;;;;;;29.17;33.68;99723.13;5094107;28;20043;-65
2023/07/23 13:57:22;;;;;;;3.22;2.25;;;;;;;29.20;35.01;99724.41;5093486;28;20536;-65
2023/07/23 13:59:47;;;;;;;3.58;2.35;;;;;;;28.99;35.46;99712.31;5092790;28;20039;-65
2023/07/23 14:02:16;;;;;;;3.28;2.05;;;;;;;28.98;35.53;99722.47;5094308;28;20028;-64
2023/07/23 14:04:42;;;;;;;3.15;1.92;;;;;;;28.89;34.88;99716.88;5094480;28;20081;-66
2023/07/23 14:07:07;;;;;;;4.72;2.35;;;;;;;28.91;35.16;99720.13;5094105;28;20067;-65
2023/07/23 14:09:33;;;;;;;4.85;2.25;;;;;;;28.66;35.20;99717.91;5094121;28;20040;-64
2023/07/23 14:11:58;;;;;;;4.97;2.58;;;;;;;28.65;35.32;99710.81;5094154;28;20132;-65
2023/07/23 14:14:23;;;;;;;3.78;2.50;;;;;;;28.63;35.79;99711.13;5094114;28;20047;-64
2023/07/23 14:16:49;;;;;;;3.17;1.92;;;;;;;28.80;35.71;99715.16;5093945;28;20042;-64
2023/07/23 14:19:14;;;;;;;4.03;2.20;;;;;;;28.90;36.04;99714.94;5093861;28;20051;-64
2023/07/23 14:21:39;;;;;;;3.22;2.65;;;;;;;28.84;35.37;99716.16;5093790;28;20133;-64
2023/07/23 14:24:05;;;;;;;4.47;2.63;;;;;;;28.65;36.27;99724.50;5094093;28;20036;-64
2023/07/23 14:26:30;;;;;;;2.63;2.00;;;;;;;28.45;36.03;99712.03;5093932;28;20047;-57
2023/07/23 14:28:56;;;;;;;3.70;2.28;;;;;;;28.46;36.47;99715.59;5093774;28;20413;-64
2023/07/23 14:31:21;;;;;;;3.50;2.13;;;;;;;28.48;36.77;99727.03;5093835;28;20131;-62
2023/07/23 14:33:46;;;;;;;3.50;2.30;;;;;;;28.28;36.41;99722.75;5093598;28;20062;-63
2023/07/23 14:36:12;;;;;;;4.05;2.22;;;;;;;28.16;36.65;99720.50;5093747;28;20043;-63
2023/07/23 14:38:37;;;;;;;4.18;2.20;;;;;;;28.17;36.75;99719.41;5093325;28;20036;-61
2023/07/23 14:41:03;;;;;;;3.20;2.10;;;;;;;28.18;36.84;99721.03;5093709;28;20032;-63
2023/07/23 14:43:30;;;;;;;3.10;2.17;;;;;;;28.27;36.58;99708.25;5093519;28;20109;-64
2023/07/23 14:45:55;;;;;;;4.30;2.20;;;;;;;28.42;37.06;99720.03;5093275;28;20051;-64
2023/07/23 14:48:20;;;;;;;3.95;2.00;;;;;;;28.33;36.40;99718.00;5093212;28;20043;-63
2023/07/23 14:50:46;;;;;;;4.97;2.55;;;;;;;28.38;36.66;99709.72;5093351;28;20062;-63
2023/07/23 14:53:11;;;;;;;4.88;2.20;;;;;;;28.04;37.04;99721.00;5092234;28;20040;-62
2023/07/23 14:55:37;;;;;;;3.22;2.10;;;;;;;27.89;37.61;99696.63;5093423;28;20044;-63
2023/07/23 14:58:03;;;;;;;4.95;2.30;;;;;;;28.02;37.91;99706.78;5093213;28;20040;-65
2023/07/23 15:00:29;;;;;;;3.85;2.15;;;;;;;28.10;38.07;99717.06;5088985;28;20090;-64
2023/07/23 15:02:54;;;;;;;4.53;2.80;;;;;;;28.14;37.64;99703.56;5092101;28;20032;-56
2023/07/23 15:05:20;;;;;;;4.28;2.47;;;;;;;28.27;37.83;99707.44;5092369;28;20571;-58
2023/07/23 15:07:45;;;;;;;5.10;2.13;;;;;;;28.00;37.71;99703.56;5093162;28;20040;-48
2023/07/23 15:10:11;;;;;;;5.22;2.45;;;;;;;27.94;37.46;99703.94;5093078;28;20039;-62
2023/07/23 15:12:36;;;;;;;3.40;2.42;;;;;;;27.83;37.30;99706.03;5093015;28;20306;-61
2023/07/23 15:15:02;;;;;;;4.05;2.10;;;;;;;27.72;36.97;99707.34;5092980;28;20464;-60
2023/07/23 15:17:28;;;;;;;4.60;2.53;;;;;;;27.66;36.95;99700.31;5092860;28;20498;-58
2023/07/23 15:19:54;;;;;;;4.80;2.40;;;;;;;27.74;36.42;99702.38;5092511;28;20044;-61
2023/07/23 15:22:25;;;;;;;6.40;2.58;;;;;;;27.83;36.71;99704.13;5092905;28;20036;-61
2023/07/23 15:24:51;;;;;;;3.00;1.92;;;;;;;27.76;37.03;99702.88;5092989;28;20394;-60
2023/07/23 15:27:18;;;;;;;3.50;2.15;;;;;;;27.75;37.82;99699.34;5092790;28;20104;-62
2023/07/23 15:29:44;;;;;;;4.25;2.40;;;;;;;27.67;37.32;99699.19;5092362;28;20117;-61
2023/07/23 15:32:10;;;;;;;3.40;2.20;;;;;;;27.66;38.38;99686.63;5092798;28;20070;-62
2023/07/23 15:34:36;;;;;;;3.67;2.38;;;;;;;27.81;38.45;99683.66;5092592;28;20774;-60
2023/07/23 15:37:02;;;;;;;4.32;2.33;;;;;;;27.82;38.46;99688.81;5092621;28;20059;-61
2023/07/23 15:39:28;;;;;;;4.45;2.03;;;;;;;27.84;37.77;99693.97;5092269;28;20489;-61
2023/07/23 15:41:54;;;;;;;3.35;2.10;;;;;;;27.78;38.66;99681.53;5092616;28;20450;-60
2023/07/23 15:44:19;;;;;;;3.88;2.50;;;;;;;27.83;38.26;99676.75;5092199;28;20073;-62
2023/07/23 15:46:45;;;;;;;4.45;1.85;;;;;;;27.82;39.00;99669.66;5092466;28;20044;-60
2023/07/23 15:49:11;;;;;;;3.40;2.33;;;;;;;27.96;39.15;99674.34;5092086;28;20101;-61
2023/07/23 15:51:36;;;;;;;4.65;2.80;;;;;;;27.87;39.67;99666.03;5092416;28;20040;-60
2023/07/23 15:54:02;;;;;;;5.38;2.63;;;;;;;27.80;39.82;99651.94;5092352;28;20117;-61